createdAt,value
2023-03-06T00:00:03.058Z,1000.13
2023-03-06T00:01:02.900Z,1000.13
2023-03-06T00:02:02.463Z,1000.13
2023-03-06T00:03:01.872Z,1000.10
2023-03-06T00:04:02.058Z,1000.11
2023-03-06T00:05:01.917Z,1000.09
2023-03-06T00:06:02.302Z,1000.06
2023-03-06T00:07:02.519Z,1000.08
2023-03-06T00:08:02.263Z,1000.03
2023-03-06T00:09:02.715Z,1000.04
2023-03-06T00:10:02.272Z,1000.05
2023-03-06T00:11:02.787Z,1000.05
2023-03-06T00:12:02.796Z,1000.04
2023-03-06T00:13:02.535Z,1000.03
2023-03-06T00:14:02.916Z,1000.03
2023-03-06T00:15:05.178Z,999.99
2023-03-06T00:16:02.518Z,999.94
2023-03-06T00:17:02.445Z,999.99
2023-03-06T00:18:02.261Z,999.97
2023-03-06T00:19:02.664Z,999.96
2023-03-06T00:20:02.172Z,999.97
2023-03-06T00:21:02.035Z,999.93
2023-03-06T00:22:03.142Z,999.95
2023-03-06T00:23:02.623Z,999.95
2023-03-06T00:24:02.518Z,999.91
2023-03-06T00:25:02.762Z,999.91
2023-03-06T00:26:03.091Z,999.93
2023-03-06T00:27:02.671Z,999.92
2023-03-06T00:28:03.159Z,999.96
2023-03-06T00:29:02.992Z,999.89
2023-03-06T00:30:03.183Z,999.94
2023-03-06T00:31:02.868Z,999.88
2023-03-06T00:32:01.717Z,999.87
2023-03-06T00:33:01.861Z,999.87
2023-03-06T00:34:02.148Z,999.86
2023-03-06T00:35:02.285Z,999.79
2023-03-06T00:36:01.728Z,999.79
2023-03-06T00:37:02.137Z,999.82
2023-03-06T00:38:02.551Z,999.79
2023-03-06T00:39:02.756Z,999.84
2023-03-06T00:40:02.242Z,999.83
2023-03-06T00:41:02.669Z,999.81
2023-03-06T00:42:03.097Z,999.80
2023-03-06T00:43:02.459Z,999.77
2023-03-06T00:44:02.717Z,999.79
2023-03-06T00:45:02.393Z,999.77
2023-03-06T00:46:02.788Z,999.80
2023-03-06T00:47:03.228Z,999.77
2023-03-06T00:48:02.622Z,999.76
2023-03-06T00:49:02.993Z,999.77
2023-03-06T00:50:02.732Z,999.71
2023-03-06T00:51:03.033Z,999.73
2023-03-06T00:52:02.305Z,999.72
2023-03-06T00:53:01.739Z,999.70
2023-03-06T00:54:02.120Z,999.69
2023-03-06T00:55:01.771Z,999.74
2023-03-06T00:56:01.939Z,999.70
2023-03-06T00:57:02.844Z,999.68
2023-03-06T00:58:02.279Z,999.65
2023-03-06T00:59:02.596Z,999.68
2023-03-06T01:00:02.302Z,999.67
2023-03-06T01:01:02.732Z,999.62
2023-03-06T01:02:03.140Z,999.64
2023-03-06T01:03:03.043Z,999.62
2023-03-06T01:04:03.012Z,999.62
2023-03-06T01:05:02.684Z,999.62
2023-03-06T01:06:02.957Z,999.60
2023-03-06T01:07:02.670Z,999.58
2023-03-06T01:08:02.943Z,999.54
2023-03-06T01:09:02.622Z,999.52
2023-03-06T01:10:02.937Z,999.53
2023-03-06T01:11:02.604Z,999.53
2023-03-06T01:12:03.521Z,999.56
2023-03-06T01:13:03.611Z,999.50
2023-03-06T01:14:02.971Z,999.51
2023-03-06T01:15:03.277Z,999.50
2023-03-06T01:16:03.628Z,999.49
2023-03-06T01:17:02.028Z,999.46
2023-03-06T01:18:02.323Z,999.48
2023-03-06T01:19:02.437Z,999.47
2023-03-06T01:20:02.162Z,999.45
2023-03-06T01:21:02.375Z,999.44
2023-03-06T01:22:02.737Z,999.45
2023-03-06T01:23:03.014Z,999.41
2023-03-06T01:24:02.704Z,999.44
2023-03-06T01:25:03.019Z,999.41
2023-03-06T01:26:02.650Z,999.43
2023-03-06T01:27:02.974Z,999.38
2023-03-06T01:28:03.385Z,999.34
2023-03-06T01:29:03.005Z,999.37
2023-03-06T01:30:03.358Z,999.37
2023-03-06T01:31:02.977Z,999.32
2023-03-06T01:32:02.579Z,999.28
2023-03-06T01:33:02.333Z,999.31
2023-03-06T01:34:02.668Z,999.29
2023-03-06T01:35:02.295Z,999.23
2023-03-06T01:36:02.620Z,999.24
2023-03-06T01:37:02.979Z,999.26
2023-03-06T01:38:03.273Z,999.21
2023-03-06T01:39:02.857Z,999.26
2023-03-06T01:40:03.124Z,999.18
2023-03-06T01:41:03.383Z,999.22
2023-03-06T01:42:02.676Z,999.17
2023-03-06T01:43:02.407Z,999.17
2023-03-06T01:44:02.738Z,999.15
2023-03-06T01:45:02.347Z,999.16
2023-03-06T01:46:02.661Z,999.13
2023-03-06T01:47:02.978Z,999.12
2023-03-06T01:48:03.281Z,999.13
2023-03-06T01:49:02.885Z,999.03
2023-03-06T01:50:03.188Z,999.05
2023-03-06T01:51:03.442Z,999.01
2023-03-06T01:52:02.662Z,999.03
2023-03-06T01:53:02.967Z,999.00
2023-03-06T01:54:02.373Z,998.99
2023-03-06T01:55:02.723Z,998.98
2023-03-06T01:56:02.368Z,998.96
2023-03-06T01:57:02.829Z,998.95
2023-03-06T01:58:03.101Z,998.94
2023-03-06T01:59:02.669Z,998.95
2023-03-06T02:00:02.559Z,998.94
2023-03-06T02:01:03.040Z,998.92
2023-03-06T02:02:03.054Z,998.91
2023-03-06T02:03:03.377Z,998.89
2023-03-06T02:04:03.042Z,998.92
2023-03-06T02:05:03.376Z,998.92
2023-03-06T02:06:02.963Z,998.91
2023-03-06T02:07:03.671Z,998.87
2023-03-06T02:08:03.115Z,998.86
2023-03-06T02:09:03.403Z,998.89
2023-03-06T02:10:03.517Z,998.87
2023-03-06T02:11:03.174Z,998.82
2023-03-06T02:12:02.970Z,998.84
2023-03-06T02:13:02.449Z,998.82
2023-03-06T02:14:02.818Z,998.80
2023-03-06T02:15:02.455Z,998.83
2023-03-06T02:16:02.840Z,998.81
2023-03-06T02:17:03.182Z,998.81
2023-03-06T02:18:02.885Z,998.76
2023-03-06T02:19:03.230Z,998.80
2023-03-06T02:20:03.449Z,998.77
2023-03-06T02:21:02.880Z,998.81
2023-03-06T02:22:03.277Z,998.76
2023-03-06T02:23:03.104Z,998.79
2023-03-06T02:24:03.531Z,998.74
2023-03-06T02:25:03.184Z,998.72
2023-03-06T02:26:03.579Z,998.69
2023-03-06T02:27:02.778Z,998.69
2023-03-06T02:28:03.018Z,998.69
2023-03-06T02:29:02.567Z,998.68
2023-03-06T02:30:02.997Z,998.66
2023-03-06T02:31:02.490Z,998.67
2023-03-06T02:32:02.985Z,998.63
2023-03-06T02:33:02.722Z,998.59
2023-03-06T02:34:03.050Z,998.59
2023-03-06T02:35:02.547Z,998.59
2023-03-06T02:36:03.017Z,998.59
2023-03-06T02:37:03.354Z,998.62
2023-03-06T02:38:03.024Z,998.58
2023-03-06T02:39:03.603Z,998.61
2023-03-06T02:40:02.980Z,998.55
2023-03-06T02:41:03.224Z,998.56
2023-03-06T02:42:02.590Z,998.57
2023-03-06T02:43:02.245Z,998.55
2023-03-06T02:44:02.576Z,998.54
2023-03-06T02:45:02.202Z,998.54
2023-03-06T02:46:02.572Z,998.50
2023-03-06T02:47:03.029Z,998.49
2023-03-06T02:48:02.634Z,998.54
2023-03-06T02:49:02.951Z,998.48
2023-03-06T02:50:02.565Z,998.45
2023-03-06T02:51:02.875Z,998.43
2023-03-06T02:52:03.410Z,998.44
2023-03-06T02:53:02.827Z,998.43
2023-03-06T02:54:03.020Z,998.43
2023-03-06T02:55:03.291Z,998.37
2023-03-06T02:56:02.962Z,998.39
2023-03-06T02:57:03.214Z,998.40
2023-03-06T02:58:02.876Z,998.35
2023-03-06T02:59:03.143Z,998.35
2023-03-06T03:00:03.475Z,998.38
2023-03-06T03:01:02.814Z,998.37
2023-03-06T03:02:02.992Z,998.32
2023-03-06T03:03:02.519Z,998.33
2023-03-06T03:04:02.796Z,998.34
2023-03-06T03:05:03.114Z,998.33
2023-03-06T03:06:03.132Z,998.34
2023-03-06T03:07:03.270Z,998.32
2023-03-06T03:08:02.918Z,998.32
2023-03-06T03:09:02.907Z,998.35
2023-03-06T03:10:03.228Z,998.35
2023-03-06T03:11:03.314Z,998.34
2023-03-06T03:12:03.503Z,998.28
2023-03-06T03:13:03.138Z,998.26
2023-03-06T03:14:03.451Z,998.27
2023-03-06T03:15:03.661Z,998.26
2023-03-06T03:16:03.098Z,998.27
2023-03-06T03:17:03.447Z,998.25
2023-03-06T03:18:03.528Z,998.22
2023-03-06T03:19:03.245Z,998.24
2023-03-06T03:20:03.514Z,998.25
2023-03-06T03:21:03.065Z,998.18
2023-03-06T03:22:03.154Z,998.19
2023-03-06T03:23:02.854Z,998.20
2023-03-06T03:24:03.164Z,998.19
2023-03-06T03:25:03.224Z,998.18
2023-03-06T03:26:02.658Z,998.16
2023-03-06T03:27:02.747Z,998.14
2023-03-06T03:28:02.449Z,998.19
2023-03-06T03:29:02.823Z,998.17
2023-03-06T03:30:02.242Z,998.20
2023-03-06T03:31:02.223Z,998.17
2023-03-06T03:32:03.304Z,998.19
2023-03-06T03:33:03.359Z,998.18
2023-03-06T03:34:03.185Z,998.18
2023-03-06T03:35:02.914Z,998.18
2023-03-06T03:36:03.263Z,998.16
2023-03-06T03:37:03.374Z,998.19
2023-03-06T03:38:02.891Z,998.16
2023-03-06T03:39:03.249Z,998.14
2023-03-06T03:40:03.381Z,998.11
2023-03-06T03:41:02.852Z,998.09
2023-03-06T03:42:03.102Z,998.07
2023-03-06T03:43:02.532Z,998.09
2023-03-06T03:44:02.897Z,998.06
2023-03-06T03:45:02.461Z,998.07
2023-03-06T03:46:02.834Z,998.07
2023-03-06T03:47:03.078Z,998.06
2023-03-06T03:48:02.843Z,998.09
2023-03-06T03:49:02.517Z,998.06
2023-03-06T03:50:02.812Z,998.05
2023-03-06T03:51:03.175Z,998.04
2023-03-06T03:52:02.170Z,998.03
2023-03-06T03:53:02.488Z,998.02
2023-03-06T03:54:02.693Z,997.99
2023-03-06T03:55:02.061Z,997.98
2023-03-06T03:56:02.505Z,997.92
2023-03-06T03:57:02.194Z,997.95
2023-03-06T03:58:02.247Z,997.94
2023-03-06T03:59:02.544Z,997.92
2023-03-06T04:00:02.161Z,997.87
2023-03-06T04:01:02.625Z,997.88
2023-03-06T04:02:02.825Z,997.86
2023-03-06T04:03:02.890Z,997.85
2023-03-06T04:04:02.295Z,997.86
2023-03-06T04:05:02.868Z,997.85
2023-03-06T04:06:02.297Z,997.84
2023-03-06T04:07:02.701Z,997.83
2023-03-06T04:08:02.636Z,997.82
2023-03-06T04:09:03.004Z,997.82
2023-03-06T04:10:02.958Z,997.80
2023-03-06T04:11:02.631Z,997.75
2023-03-06T04:12:02.042Z,997.77
2023-03-06T04:13:02.407Z,997.75
2023-03-06T04:14:02.095Z,997.79
2023-03-06T04:15:02.226Z,997.77
2023-03-06T04:16:01.975Z,997.73
2023-03-06T04:17:02.266Z,997.73
2023-03-06T04:18:02.342Z,997.76
2023-03-06T04:19:02.792Z,997.73
2023-03-06T04:20:02.190Z,997.75
2023-03-06T04:21:02.469Z,997.74
2023-03-06T04:22:03.048Z,997.76
2023-03-06T04:23:03.429Z,997.76
2023-03-06T04:24:02.961Z,997.73
2023-03-06T04:25:03.217Z,997.69
2023-03-06T04:26:03.032Z,997.71
2023-03-06T04:27:02.499Z,997.71
2023-03-06T04:28:02.490Z,997.72
2023-03-06T04:29:02.990Z,997.73
2023-03-06T04:30:02.471Z,997.72
2023-03-06T04:31:03.134Z,997.73
2023-03-06T04:32:02.723Z,997.68
2023-03-06T04:33:02.539Z,997.63
2023-03-06T04:34:02.479Z,997.64
2023-03-06T04:35:02.985Z,997.65
2023-03-06T04:36:02.729Z,997.61
2023-03-06T04:37:01.998Z,997.62
2023-03-06T04:38:02.479Z,997.59
2023-03-06T04:39:02.022Z,997.60
2023-03-06T04:40:02.411Z,997.58
2023-03-06T04:41:02.303Z,997.55
2023-03-06T04:42:02.770Z,997.57
2023-03-06T04:43:02.772Z,997.58
2023-03-06T04:44:03.142Z,997.53
2023-03-06T04:45:02.696Z,997.55
2023-03-06T04:46:03.185Z,997.54
2023-03-06T04:47:02.528Z,997.51
2023-03-06T04:48:02.854Z,997.53
2023-03-06T04:49:02.829Z,997.48
2023-03-06T04:50:02.213Z,997.47
2023-03-06T04:51:02.523Z,997.45
2023-03-06T04:52:02.223Z,997.46
2023-03-06T04:53:01.969Z,997.48
2023-03-06T04:54:02.437Z,997.45
2023-03-06T04:55:02.383Z,997.44
2023-03-06T04:56:01.859Z,997.44
2023-03-06T04:57:01.941Z,997.45
2023-03-06T04:58:02.313Z,997.41
2023-03-06T04:59:02.076Z,997.38
2023-03-06T05:00:02.490Z,997.43
2023-03-06T05:01:02.288Z,997.39
2023-03-06T05:02:02.742Z,997.40
2023-03-06T05:03:02.492Z,997.41
2023-03-06T05:04:02.923Z,997.39
2023-03-06T05:05:02.312Z,997.36
2023-03-06T05:06:02.509Z,997.36
2023-03-06T05:07:02.664Z,997.34
2023-03-06T05:08:02.922Z,997.37
2023-03-06T05:09:02.842Z,997.34
2023-03-06T05:10:02.614Z,997.35
2023-03-06T05:11:03.005Z,997.35
2023-03-06T05:12:03.074Z,997.35
2023-03-06T05:13:02.895Z,997.31
2023-03-06T05:14:03.004Z,997.30
2023-03-06T05:15:02.895Z,997.26
2023-03-06T05:16:03.335Z,997.26
2023-03-06T05:17:02.792Z,997.26
2023-03-06T05:18:02.329Z,997.21
2023-03-06T05:19:02.296Z,997.27
2023-03-06T05:20:02.802Z,997.23
2023-03-06T05:21:02.220Z,997.22
2023-03-06T05:22:03.234Z,997.23
2023-03-06T05:23:03.034Z,997.23
2023-03-06T05:24:03.429Z,997.24
2023-03-06T05:25:02.945Z,997.24
2023-03-06T05:26:03.353Z,997.25
2023-03-06T05:27:02.868Z,997.21
2023-03-06T05:28:02.846Z,997.24
2023-03-06T05:29:02.550Z,997.21
2023-03-06T05:30:03.004Z,997.22
2023-03-06T05:31:03.551Z,997.21
2023-03-06T05:32:03.309Z,997.19
2023-03-06T05:33:02.831Z,997.20
2023-03-06T05:34:02.610Z,997.23
2023-03-06T05:35:02.631Z,997.25
2023-03-06T05:36:02.802Z,997.25
2023-03-06T05:37:03.282Z,997.27
2023-03-06T05:38:03.103Z,997.27
2023-03-06T05:39:03.519Z,997.27
2023-03-06T05:40:03.577Z,997.25
2023-03-06T05:41:03.536Z,997.25
2023-03-06T05:42:03.068Z,997.26
2023-03-06T05:43:02.576Z,997.22
2023-03-06T05:44:02.836Z,997.26
2023-03-06T05:45:02.632Z,997.29
2023-03-06T05:46:02.574Z,997.27
2023-03-06T05:47:03.228Z,997.25
2023-03-06T05:48:02.719Z,997.26
2023-03-06T05:49:02.923Z,997.25
2023-03-06T05:50:03.190Z,997.27
2023-03-06T05:51:02.929Z,997.31
2023-03-06T05:52:03.222Z,997.29
2023-03-06T05:53:02.968Z,997.28
2023-03-06T05:54:03.421Z,997.27
2023-03-06T05:55:03.381Z,997.29
2023-03-06T05:56:02.889Z,997.31
2023-03-06T05:57:03.355Z,997.29
2023-03-06T05:58:03.181Z,997.31
2023-03-06T05:59:03.176Z,997.28
2023-03-06T06:00:03.021Z,997.28
2023-03-06T06:01:02.972Z,997.31
2023-03-06T06:02:03.479Z,997.31
2023-03-06T06:03:03.220Z,997.30
2023-03-06T06:04:03.024Z,997.29
2023-03-06T06:05:03.280Z,997.30
2023-03-06T06:06:03.008Z,997.29
2023-03-06T06:07:03.617Z,997.29
2023-03-06T06:08:03.110Z,997.26
2023-03-06T06:09:03.559Z,997.30
2023-03-06T06:10:03.869Z,997.30
2023-03-06T06:11:03.476Z,997.27
2023-03-06T06:12:02.871Z,997.33
2023-03-06T06:13:02.759Z,997.32
2023-03-06T06:14:02.920Z,997.28
2023-03-06T06:15:02.608Z,997.30
2023-03-06T06:16:02.827Z,997.27
2023-03-06T06:17:02.755Z,997.31
2023-03-06T06:18:02.813Z,997.29
2023-03-06T06:19:02.755Z,997.32
2023-03-06T06:20:03.064Z,997.25
2023-03-06T06:21:03.011Z,997.25
2023-03-06T06:22:03.068Z,997.25
2023-03-06T06:23:02.697Z,997.29
2023-03-06T06:24:02.976Z,997.27
2023-03-06T06:25:02.770Z,997.25
2023-03-06T06:26:03.117Z,997.26
2023-03-06T06:27:04.171Z,997.26
2023-03-06T06:28:03.722Z,997.26
2023-03-06T06:29:03.618Z,997.21
2023-03-06T06:30:03.355Z,997.25
2023-03-06T06:31:03.692Z,997.22
2023-03-06T06:32:02.222Z,997.20
2023-03-06T06:33:02.715Z,997.22
2023-03-06T06:34:02.765Z,997.22
2023-03-06T06:35:02.535Z,997.22
2023-03-06T06:36:02.433Z,997.23
2023-03-06T06:37:02.719Z,997.25
2023-03-06T06:38:03.183Z,997.27
2023-03-06T06:39:02.861Z,997.26
2023-03-06T06:40:02.950Z,997.25
2023-03-06T06:41:35.557Z,997.21
2023-03-06T06:42:25.883Z,997.25
2023-03-06T06:43:02.612Z,997.23
2023-03-06T06:44:02.775Z,997.26
2023-03-06T06:45:02.421Z,997.26
2023-03-06T06:46:32.097Z,997.28
2023-03-06T06:47:22.274Z,997.27
2023-03-06T06:48:02.742Z,997.25
2023-03-06T06:49:02.716Z,997.25
2023-03-06T06:50:02.703Z,997.23
2023-03-06T06:51:02.580Z,997.25
2023-03-06T06:52:02.407Z,997.27
2023-03-06T06:53:02.864Z,997.24
2023-03-06T06:54:02.529Z,997.23
2023-03-06T06:55:02.912Z,997.25
2023-03-06T06:56:02.969Z,997.26
2023-03-06T06:57:02.869Z,997.20
2023-03-06T06:58:03.089Z,997.25
2023-03-06T06:59:15.633Z,997.24
2023-03-06T07:00:03.051Z,997.29
2023-03-06T07:01:02.904Z,997.26
2023-03-06T07:02:02.166Z,997.29
2023-03-06T07:03:02.042Z,997.29
2023-03-06T07:04:02.296Z,997.32
2023-03-06T07:05:05.262Z,997.28
2023-03-06T07:06:02.191Z,997.28
2023-03-06T07:07:02.559Z,997.22
2023-03-06T07:08:03.096Z,997.26
2023-03-06T07:09:02.943Z,997.24
2023-03-06T07:10:02.851Z,997.27
2023-03-06T07:11:02.767Z,997.28
2023-03-06T07:12:03.109Z,997.29
2023-03-06T07:13:03.338Z,997.29
2023-03-06T07:14:03.408Z,997.29
2023-03-06T07:15:02.885Z,997.29
2023-03-06T07:16:02.963Z,997.32
2023-03-06T07:17:02.466Z,997.39
2023-03-06T07:18:02.914Z,997.37
2023-03-06T07:19:02.469Z,997.35
2023-03-06T07:20:02.308Z,997.33
2023-03-06T07:21:02.230Z,997.34
2023-03-06T07:22:02.910Z,997.32
2023-03-06T07:23:03.043Z,997.31
2023-03-06T07:24:03.230Z,997.34
2023-03-06T07:25:02.989Z,997.35
2023-03-06T07:26:02.788Z,997.35
2023-03-06T07:27:02.190Z,997.37
2023-03-06T07:28:02.898Z,997.35
2023-03-06T07:29:02.622Z,997.36
2023-03-06T07:30:02.442Z,997.33
2023-03-06T07:31:02.506Z,997.35
2023-03-06T07:32:02.994Z,997.37
2023-03-06T07:33:02.266Z,997.35
2023-03-06T07:34:04.946Z,997.38
2023-03-06T07:35:18.952Z,997.42
2023-03-06T07:36:02.403Z,997.37
2023-03-06T07:37:02.904Z,997.38
2023-03-06T07:38:02.488Z,997.41
2023-03-06T07:39:02.427Z,997.35
2023-03-06T07:40:02.786Z,997.38
2023-03-06T07:41:03.049Z,997.33
2023-03-06T07:42:02.320Z,997.31
2023-03-06T07:43:19.032Z,997.34
2023-03-06T07:44:02.548Z,997.33
2023-03-06T07:45:02.063Z,997.30
2023-03-06T07:46:02.018Z,997.32
2023-03-06T07:47:02.518Z,997.33
2023-03-06T07:48:04.420Z,997.36
2023-03-06T07:49:02.789Z,997.35
2023-03-06T07:50:02.602Z,997.35
2023-03-06T07:51:02.262Z,997.39
2023-03-06T07:52:02.115Z,997.39
2023-03-06T07:53:01.917Z,997.34
2023-03-06T07:54:02.352Z,997.35
2023-03-06T07:55:02.185Z,997.41
2023-03-06T07:56:01.887Z,997.37
2023-03-06T07:57:02.462Z,997.38
2023-03-06T07:58:02.582Z,997.37
2023-03-06T07:59:02.286Z,997.39
2023-03-06T08:00:02.334Z,997.39
2023-03-06T08:01:02.672Z,997.44
2023-03-06T08:02:02.893Z,997.44
2023-03-06T08:03:03.336Z,997.44
2023-03-06T08:04:02.956Z,997.42
2023-03-06T08:05:02.828Z,997.45
2023-03-06T08:06:03.187Z,997.44
2023-03-06T08:07:03.242Z,997.46
2023-03-06T08:08:03.298Z,997.46
2023-03-06T08:09:03.213Z,997.45
2023-03-06T08:10:03.165Z,997.45
2023-03-06T08:11:03.300Z,997.44
2023-03-06T08:12:03.187Z,997.43
2023-03-06T08:13:03.156Z,997.46
2023-03-06T08:14:03.271Z,997.45
2023-03-06T08:15:03.349Z,997.42
2023-03-06T08:16:03.249Z,997.43
2023-03-06T08:17:02.596Z,997.47
2023-03-06T08:18:02.884Z,997.46
2023-03-06T08:19:02.960Z,997.45
2023-03-06T08:20:02.851Z,997.47
2023-03-06T08:21:02.790Z,997.43
2023-03-06T08:22:03.105Z,997.47
2023-03-06T08:23:03.122Z,997.47
2023-03-06T08:24:03.066Z,997.48
2023-03-06T08:25:02.719Z,997.48
2023-03-06T08:26:03.217Z,997.47
2023-03-06T08:27:02.706Z,997.47
2023-03-06T08:28:02.385Z,997.45
2023-03-06T08:29:02.906Z,997.46
2023-03-06T08:30:02.794Z,997.44
2023-03-06T08:31:02.733Z,997.45
2023-03-06T08:32:03.183Z,997.47
2023-03-06T08:33:02.942Z,997.45
2023-03-06T08:34:02.596Z,997.48
2023-03-06T08:35:02.590Z,997.47
2023-03-06T08:36:02.774Z,997.44
2023-03-06T08:37:02.490Z,997.46
2023-03-06T08:38:02.262Z,997.49
2023-03-06T08:39:02.219Z,997.49
2023-03-06T08:40:01.938Z,997.45
2023-03-06T08:41:02.577Z,997.47
2023-03-06T08:42:02.406Z,997.52
2023-03-06T08:43:02.336Z,997.50
2023-03-06T08:44:02.365Z,997.48
2023-03-06T08:45:02.558Z,997.47
2023-03-06T08:46:02.787Z,997.48
2023-03-06T08:47:03.246Z,997.51
2023-03-06T08:48:03.067Z,997.49
2023-03-06T08:49:02.852Z,997.48
2023-03-06T08:50:02.805Z,997.48
2023-03-06T08:51:03.192Z,997.46
2023-03-06T08:52:03.224Z,997.50
2023-03-06T08:53:03.264Z,997.50
2023-03-06T08:54:03.052Z,997.49
2023-03-06T08:55:02.972Z,997.50
2023-03-06T08:56:02.793Z,997.52
2023-03-06T08:57:02.775Z,997.50
2023-03-06T08:58:02.270Z,997.48
2023-03-06T08:59:02.447Z,997.52
2023-03-06T09:00:02.375Z,997.49
2023-03-06T09:01:02.831Z,997.51
2023-03-06T09:02:03.251Z,997.53
2023-03-06T09:03:02.791Z,997.55
2023-03-06T09:04:03.283Z,997.53
2023-03-06T09:05:02.825Z,997.54
2023-03-06T09:06:02.734Z,997.55
2023-03-06T09:07:03.661Z,997.56
2023-03-06T09:08:03.464Z,997.55
2023-03-06T09:09:03.212Z,997.54
2023-03-06T09:10:03.634Z,997.54
2023-03-06T09:11:03.241Z,997.54
2023-03-06T09:12:02.885Z,997.55
2023-03-06T09:13:02.970Z,997.54
2023-03-06T09:14:02.902Z,997.51
2023-03-06T09:15:02.888Z,997.54
2023-03-06T09:16:02.989Z,997.54
2023-03-06T09:17:02.334Z,997.50
2023-03-06T09:18:02.628Z,997.51
2023-03-06T09:19:02.699Z,997.52
2023-03-06T09:20:02.530Z,997.53
2023-03-06T09:21:02.397Z,997.52
2023-03-06T09:22:03.022Z,997.50
2023-03-06T09:23:03.013Z,997.52
2023-03-06T09:24:03.180Z,997.52
2023-03-06T09:25:03.485Z,997.50
2023-03-06T09:26:03.347Z,997.51
2023-03-06T09:27:02.627Z,997.53
2023-03-06T09:28:11.365Z,997.56
2023-03-06T09:29:02.748Z,997.54
2023-03-06T09:30:02.597Z,997.54
2023-03-06T09:31:03.179Z,997.54
2023-03-06T09:32:02.837Z,997.52
2023-03-06T09:33:02.955Z,997.52
2023-03-06T09:34:03.374Z,997.54
2023-03-06T09:35:03.239Z,997.54
2023-03-06T09:36:03.082Z,997.53
2023-03-06T09:37:02.897Z,997.51
2023-03-06T09:38:03.076Z,997.50
2023-03-06T09:39:03.159Z,997.52
2023-03-06T09:40:03.159Z,997.51
2023-03-06T09:41:03.171Z,997.51
2023-03-06T09:42:02.287Z,997.54
2023-03-06T09:43:02.796Z,997.53
2023-03-06T09:44:02.320Z,997.54
2023-03-06T09:45:02.294Z,997.57
2023-03-06T09:46:02.447Z,997.55
2023-03-06T09:47:02.501Z,997.51
2023-03-06T09:48:02.518Z,997.51
2023-03-06T09:49:02.774Z,997.48
2023-03-06T09:50:02.328Z,997.48
2023-03-06T09:51:02.265Z,997.50
2023-03-06T09:52:02.846Z,997.52
2023-03-06T09:53:03.353Z,997.50
2023-03-06T09:54:03.308Z,997.53
2023-03-06T09:55:03.024Z,997.53
2023-03-06T09:56:03.200Z,997.52
2023-03-06T09:57:02.722Z,997.54
2023-03-06T09:58:02.757Z,997.54
2023-03-06T09:59:02.460Z,997.58
2023-03-06T10:00:04.432Z,997.55
2023-03-06T10:01:02.794Z,997.55
2023-03-06T10:02:02.628Z,997.50
2023-03-06T10:03:02.835Z,997.49
2023-03-06T10:04:02.776Z,997.52
2023-03-06T10:05:03.073Z,997.53
2023-03-06T10:06:03.014Z,997.52
2023-03-06T10:07:02.885Z,997.50
2023-03-06T10:08:03.064Z,997.51
2023-03-06T10:09:03.211Z,997.48
2023-03-06T10:10:03.057Z,997.51
2023-03-06T10:11:03.286Z,997.46
2023-03-06T10:12:03.018Z,997.50
2023-03-06T10:13:03.288Z,997.47
2023-03-06T10:14:03.105Z,997.44
2023-03-06T10:15:02.840Z,997.47
2023-03-06T10:16:03.058Z,997.47
2023-03-06T10:17:03.379Z,997.47
2023-03-06T10:18:03.753Z,997.44
2023-03-06T10:19:03.775Z,997.48
2023-03-06T10:20:03.414Z,997.48
2023-03-06T10:21:18.485Z,997.47
2023-03-06T10:22:03.002Z,997.51
2023-03-06T10:23:05.075Z,997.52
2023-03-06T10:24:02.933Z,997.48
2023-03-06T10:25:03.295Z,997.47
2023-03-06T10:26:03.051Z,997.52
2023-03-06T10:27:02.564Z,997.48
2023-03-06T10:28:02.672Z,997.50
2023-03-06T10:29:02.721Z,997.49
2023-03-06T10:30:03.972Z,997.54
2023-03-06T10:31:02.313Z,997.52
2023-03-06T10:32:03.147Z,997.50
2023-03-06T10:33:03.077Z,997.48
2023-03-06T10:34:03.258Z,997.50
2023-03-06T10:35:03.456Z,997.50
2023-03-06T10:36:03.508Z,997.47
2023-03-06T10:37:02.574Z,997.51
2023-03-06T10:38:02.975Z,997.48
2023-03-06T10:39:03.032Z,997.45
2023-03-06T10:40:02.734Z,997.48
2023-03-06T10:41:02.984Z,997.47
2023-03-06T10:42:02.921Z,997.45
2023-03-06T10:43:11.346Z,997.46
2023-03-06T10:44:02.863Z,997.43
2023-03-06T10:45:02.919Z,997.45
2023-03-06T10:46:02.913Z,997.43
2023-03-06T10:47:03.166Z,997.41
2023-03-06T10:48:03.135Z,997.42
2023-03-06T10:49:03.082Z,997.43
2023-03-06T10:50:02.881Z,997.44
2023-03-06T10:51:09.832Z,997.41
2023-03-06T10:52:02.568Z,997.44
2023-03-06T10:53:02.541Z,997.42
2023-03-06T10:54:02.302Z,997.41
2023-03-06T10:55:02.226Z,997.40
2023-03-06T10:56:02.386Z,997.39
2023-03-06T10:57:03.087Z,997.44
2023-03-06T10:58:03.004Z,997.40
2023-03-06T10:59:02.702Z,997.45
2023-03-06T11:00:02.733Z,997.41
2023-03-06T11:01:03.285Z,997.41
2023-03-06T11:02:02.298Z,997.41
2023-03-06T11:03:01.947Z,997.44
2023-03-06T11:04:01.785Z,997.45
2023-03-06T11:05:02.379Z,997.32
2023-03-06T11:06:01.987Z,997.42
2023-03-06T11:07:02.510Z,997.40
2023-03-06T11:08:02.265Z,997.37
2023-03-06T11:09:02.178Z,997.41
2023-03-06T11:10:02.088Z,997.37
2023-03-06T11:11:02.143Z,997.41
2023-03-06T11:12:02.592Z,997.39
2023-03-06T11:13:02.347Z,997.40
2023-03-06T11:14:02.594Z,997.39
2023-03-06T11:15:02.787Z,997.38
2023-03-06T11:16:02.579Z,997.38
2023-03-06T11:17:02.218Z,997.35
2023-03-06T11:18:02.102Z,997.34
2023-03-06T11:19:01.770Z,997.38
2023-03-06T11:20:02.345Z,997.39
2023-03-06T11:21:02.318Z,997.37
2023-03-06T11:22:02.370Z,997.35
2023-03-06T11:23:02.136Z,997.37
2023-03-06T11:24:01.965Z,997.40
2023-03-06T11:25:02.160Z,997.37
2023-03-06T11:26:01.959Z,997.32
2023-03-06T11:27:02.524Z,997.33
2023-03-06T11:28:02.417Z,997.31
2023-03-06T11:29:02.325Z,997.31
2023-03-06T11:30:02.251Z,997.31
2023-03-06T11:31:02.082Z,997.29
2023-03-06T11:32:02.057Z,997.29
2023-03-06T11:33:01.787Z,997.24
2023-03-06T11:34:01.961Z,997.27
2023-03-06T11:35:01.816Z,997.24
2023-03-06T11:36:01.655Z,997.21
2023-03-06T11:37:02.260Z,997.20
2023-03-06T11:38:02.279Z,997.16
2023-03-06T11:39:01.814Z,997.13
2023-03-06T11:40:01.928Z,997.12
2023-03-06T11:41:02.330Z,997.14
2023-03-06T11:42:02.268Z,997.17
2023-03-06T11:43:01.868Z,997.13
2023-03-06T11:44:02.299Z,997.13
2023-03-06T11:45:03.185Z,997.15
2023-03-06T11:46:01.740Z,997.15
2023-03-06T11:47:02.919Z,997.14
2023-03-06T11:48:02.917Z,997.12
2023-03-06T11:49:02.531Z,997.09
2023-03-06T11:50:02.435Z,997.10
2023-03-06T11:51:03.246Z,997.11
2023-03-06T11:52:02.020Z,997.06
2023-03-06T11:53:02.057Z,997.08
2023-03-06T11:54:01.812Z,997.07
2023-03-06T11:55:01.594Z,997.07
2023-03-06T11:56:01.920Z,997.04
2023-03-06T11:57:02.086Z,997.08
2023-03-06T11:58:01.897Z,997.06
2023-03-06T11:59:01.755Z,997.10
2023-03-06T12:00:01.675Z,997.10
2023-03-06T12:01:02.179Z,997.04
2023-03-06T12:02:02.698Z,997.00
2023-03-06T12:03:02.642Z,996.99
2023-03-06T12:04:02.628Z,997.04
2023-03-06T12:05:02.676Z,997.04
2023-03-06T12:06:02.383Z,997.03
2023-03-06T12:07:02.877Z,997.03
2023-03-06T12:08:02.291Z,997.05
2023-03-06T12:09:02.835Z,997.01
2023-03-06T12:10:02.666Z,997.06
2023-03-06T12:11:02.483Z,997.05
2023-03-06T12:12:01.864Z,997.04
2023-03-06T12:13:02.208Z,997.01
2023-03-06T12:14:04.012Z,997.01
2023-03-06T12:15:02.159Z,997.00
2023-03-06T12:16:02.008Z,997.04
2023-03-06T12:17:01.929Z,996.99
2023-03-06T12:18:02.212Z,996.95
2023-03-06T12:19:02.052Z,996.94
2023-03-06T12:20:02.186Z,996.98
2023-03-06T12:21:02.080Z,996.98
2023-03-06T12:22:02.578Z,996.96
2023-03-06T12:23:14.447Z,996.90
2023-03-06T12:24:02.221Z,996.91
2023-03-06T12:25:02.362Z,996.91
2023-03-06T12:26:01.677Z,996.89
2023-03-06T12:27:01.639Z,996.91
2023-03-06T12:28:01.753Z,996.88